Weather at Alta Airport

Public forecast

Using degrees Celsius for public forecast. Weather courtesy of forecast.io.

Current aviation weather report (METAR) for Alta Airport

Retrieved 2021/07/28 16:20 UTC (21 minutes ago):

ENAT 281620Z 32011KT 9999 FEW008 FEW018 13/10 Q1011 RMK WIND 700FT 34013KT

Closest aviation forecast (TAF) to Alta Airport

Closest forecast is Banak Airport, 33.3 nm (61.7 km) E. Retrieved 2021/07/28 12:57 UTC (4 hours ago):

TAF TAF ENNA 281100Z 2812/2912 35008KT 9999 FEW010 BKN018 TEMPO 2812/2822 BKN009 TEMPO 2815/2821 36018KT TEMPO 2822/2906 BKN012